sensor_id;sensor_type;location;lat;lon;timestamp;P1;durP1;ratioP1;P2;durP2;ratioP2
40807;SDS011;26523;52.504;13.498;2023-03-19T00:02:20;15.70;;;6.97;;
40807;SDS011;26523;52.504;13.498;2023-03-19T00:04:46;19.10;;;7.72;;
40807;SDS011;26523;52.504;13.498;2023-03-19T00:07:12;17.00;;;6.38;;
40807;SDS011;26523;52.504;13.498;2023-03-19T00:09:38;14.75;;;6.65;;
40807;SDS011;26523;52.504;13.498;2023-03-19T00:12:04;19.05;;;6.72;;
40807;SDS011;26523;52.504;13.498;2023-03-19T00:14:30;14.18;;;6.68;;
40807;SDS011;26523;52.504;13.498;2023-03-19T00:16:56;12.68;;;5.65;;
40807;SDS011;26523;52.504;13.498;2023-03-19T00:19:22;14.30;;;6.00;;
40807;SDS011;26523;52.504;13.498;2023-03-19T00:21:47;20.30;;;5.90;;
40807;SDS011;26523;52.504;13.498;2023-03-19T00:24:13;15.05;;;6.13;;
40807;SDS011;26523;52.504;13.498;2023-03-19T00:26:41;13.95;;;6.70;;
40807;SDS011;26523;52.504;13.498;2023-03-19T00:29:07;16.63;;;6.43;;
40807;SDS011;26523;52.504;13.498;2023-03-19T00:31:33;17.27;;;6.28;;
40807;SDS011;26523;52.504;13.498;2023-03-19T00:33:59;16.15;;;6.20;;
40807;SDS011;26523;52.504;13.498;2023-03-19T00:36:26;12.10;;;5.95;;
40807;SDS011;26523;52.504;13.498;2023-03-19T00:38:52;16.65;;;5.85;;
40807;SDS011;26523;52.504;13.498;2023-03-19T00:41:19;17.45;;;5.93;;
40807;SDS011;26523;52.504;13.498;2023-03-19T00:43:45;11.38;;;5.53;;
40807;SDS011;26523;52.504;13.498;2023-03-19T00:46:11;15.15;;;5.22;;
40807;SDS011;26523;52.504;13.498;2023-03-19T00:48:38;11.98;;;5.65;;
40807;SDS011;26523;52.504;13.498;2023-03-19T00:51:07;13.40;;;6.28;;
40807;SDS011;26523;52.504;13.498;2023-03-19T00:53:38;13.88;;;6.75;;
40807;SDS011;26523;52.504;13.498;2023-03-19T00:56:06;11.35;;;5.45;;
40807;SDS011;26523;52.504;13.498;2023-03-19T00:58:33;11.25;;;5.32;;
40807;SDS011;26523;52.504;13.498;2023-03-19T01:00:59;17.17;;;6.60;;
40807;SDS011;26523;52.504;13.498;2023-03-19T01:03:25;12.68;;;5.50;;
40807;SDS011;26523;52.504;13.498;2023-03-19T01:05:51;14.02;;;5.65;;
40807;SDS011;26523;52.504;13.498;2023-03-19T01:08:17;12.85;;;6.03;;
40807;SDS011;26523;52.504;13.498;2023-03-19T01:10:44;13.15;;;5.63;;
40807;SDS011;26523;52.504;13.498;2023-03-19T01:13:11;14.60;;;5.60;;
40807;SDS011;26523;52.504;13.498;2023-03-19T01:15:37;13.38;;;5.75;;
40807;SDS011;26523;52.504;13.498;2023-03-19T01:18:04;14.70;;;7.13;;
40807;SDS011;26523;52.504;13.498;2023-03-19T01:20:30;14.25;;;6.50;;
40807;SDS011;26523;52.504;13.498;2023-03-19T01:22:56;15.70;;;5.95;;
40807;SDS011;26523;52.504;13.498;2023-03-19T01:25:22;14.32;;;5.97;;
40807;SDS011;26523;52.504;13.498;2023-03-19T01:27:49;12.75;;;6.03;;
40807;SDS011;26523;52.504;13.498;2023-03-19T01:30:15;15.60;;;6.15;;
40807;SDS011;26523;52.504;13.498;2023-03-19T01:32:41;14.18;;;5.18;;
40807;SDS011;26523;52.504;13.498;2023-03-19T01:35:06;15.18;;;5.72;;
40807;SDS011;26523;52.504;13.498;2023-03-19T01:37:33;14.40;;;6.32;;
40807;SDS011;26523;52.504;13.498;2023-03-19T01:39:59;14.88;;;5.70;;
40807;SDS011;26523;52.504;13.498;2023-03-19T01:42:25;14.98;;;5.95;;
40807;SDS011;26523;52.504;13.498;2023-03-19T01:44:51;13.45;;;5.82;;
40807;SDS011;26523;52.504;13.498;2023-03-19T01:47:33;14.63;;;5.90;;
40807;SDS011;26523;52.504;13.498;2023-03-19T01:50:01;15.48;;;5.53;;
40807;SDS011;26523;52.504;13.498;2023-03-19T01:52:28;11.40;;;5.65;;
40807;SDS011;26523;52.504;13.498;2023-03-19T01:54:58;12.93;;;6.43;;
40807;SDS011;26523;52.504;13.498;2023-03-19T01:57:26;12.43;;;6.22;;
40807;SDS011;26523;52.504;13.498;2023-03-19T01:59:54;12.90;;;5.90;;
40807;SDS011;26523;52.504;13.498;2023-03-19T02:02:28;17.02;;;6.82;;
40807;SDS011;26523;52.504;13.498;2023-03-19T02:05:16;17.52;;;6.05;;
40807;SDS011;26523;52.504;13.498;2023-03-19T02:07:49;11.68;;;6.13;;
40807;SDS011;26523;52.504;13.498;2023-03-19T02:10:18;17.98;;;6.55;;
40807;SDS011;26523;52.504;13.498;2023-03-19T02:12:47;15.38;;;6.20;;
40807;SDS011;26523;52.504;13.498;2023-03-19T02:15:13;20.88;;;6.13;;
40807;SDS011;26523;52.504;13.498;2023-03-19T02:17:39;13.05;;;5.85;;
40807;SDS011;26523;52.504;13.498;2023-03-19T02:23:19;16.05;;;5.80;;
40807;SDS011;26523;52.504;13.498;2023-03-19T02:26:06;19.88;;;5.53;;
40807;SDS011;26523;52.504;13.498;2023-03-19T02:28:39;11.35;;;5.70;;
40807;SDS011;26523;52.504;13.498;2023-03-19T02:31:08;11.70;;;5.18;;
40807;SDS011;26523;52.504;13.498;2023-03-19T02:33:34;13.10;;;5.25;;
40807;SDS011;26523;52.504;13.498;2023-03-19T02:36:00;14.35;;;5.70;;
40807;SDS011;26523;52.504;13.498;2023-03-19T02:38:27;12.63;;;5.07;;
40807;SDS011;26523;52.504;13.498;2023-03-19T02:41:00;15.85;;;5.80;;
40807;SDS011;26523;52.504;13.498;2023-03-19T02:43:29;14.50;;;5.30;;
40807;SDS011;26523;52.504;13.498;2023-03-19T02:45:56;14.05;;;5.38;;
40807;SDS011;26523;52.504;13.498;2023-03-19T02:48:22;13.30;;;6.18;;
40807;SDS011;26523;52.504;13.498;2023-03-19T02:50:48;17.90;;;6.47;;
40807;SDS011;26523;52.504;13.498;2023-03-19T02:53:14;13.77;;;6.40;;
40807;SDS011;26523;52.504;13.498;2023-03-19T02:55:40;12.27;;;5.22;;
40807;SDS011;26523;52.504;13.498;2023-03-19T02:58:06;14.27;;;6.03;;
40807;SDS011;26523;52.504;13.498;2023-03-19T03:00:32;15.23;;;5.72;;
40807;SDS011;26523;52.504;13.498;2023-03-19T03:02:58;16.52;;;5.50;;
40807;SDS011;26523;52.504;13.498;2023-03-19T03:05:24;12.63;;;5.78;;
40807;SDS011;26523;52.504;13.498;2023-03-19T03:07:50;13.15;;;5.60;;
40807;SDS011;26523;52.504;13.498;2023-03-19T03:10:16;13.63;;;5.32;;
40807;SDS011;26523;52.504;13.498;2023-03-19T03:12:42;12.70;;;5.43;;
40807;SDS011;26523;52.504;13.498;2023-03-19T03:15:08;12.68;;;5.20;;
40807;SDS011;26523;52.504;13.498;2023-03-19T03:17:40;10.27;;;4.60;;
40807;SDS011;26523;52.504;13.498;2023-03-19T03:20:09;14.18;;;5.53;;
40807;SDS011;26523;52.504;13.498;2023-03-19T03:22:36;12.93;;;5.82;;
40807;SDS011;26523;52.504;13.498;2023-03-19T03:25:03;13.35;;;5.38;;
40807;SDS011;26523;52.504;13.498;2023-03-19T03:27:29;14.52;;;4.97;;
40807;SDS011;26523;52.504;13.498;2023-03-19T03:29:55;10.25;;;5.57;;
40807;SDS011;26523;52.504;13.498;2023-03-19T03:32:21;13.30;;;5.63;;
40807;SDS011;26523;52.504;13.498;2023-03-19T03:34:47;14.35;;;6.32;;
40807;SDS011;26523;52.504;13.498;2023-03-19T03:37:13;12.93;;;5.45;;
40807;SDS011;26523;52.504;13.498;2023-03-19T03:39:38;12.75;;;6.00;;
40807;SDS011;26523;52.504;13.498;2023-03-19T03:42:04;10.00;;;5.13;;
40807;SDS011;26523;52.504;13.498;2023-03-19T03:44:30;17.05;;;5.85;;
40807;SDS011;26523;52.504;13.498;2023-03-19T03:46:56;11.40;;;5.10;;
40807;SDS011;26523;52.504;13.498;2023-03-19T03:49:22;13.68;;;6.05;;
40807;SDS011;26523;52.504;13.498;2023-03-19T03:51:48;13.32;;;4.93;;
40807;SDS011;26523;52.504;13.498;2023-03-19T03:54:14;14.98;;;5.75;;
40807;SDS011;26523;52.504;13.498;2023-03-19T03:56:40;17.23;;;6.00;;
40807;SDS011;26523;52.504;13.498;2023-03-19T03:59:06;13.38;;;5.13;;
40807;SDS011;26523;52.504;13.498;2023-03-19T04:01:31;11.15;;;5.13;;
40807;SDS011;26523;52.504;13.498;2023-03-19T04:03:58;15.40;;;5.82;;
40807;SDS011;26523;52.504;13.498;2023-03-19T04:06:24;10.13;;;4.70;;
40807;SDS011;26523;52.504;13.498;2023-03-19T04:08:51;10.75;;;5.05;;
40807;SDS011;26523;52.504;13.498;2023-03-19T04:11:17;14.63;;;6.03;;
40807;SDS011;26523;52.504;13.498;2023-03-19T04:13:42;15.77;;;5.70;;
40807;SDS011;26523;52.504;13.498;2023-03-19T04:16:08;11.05;;;5.68;;
40807;SDS011;26523;52.504;13.498;2023-03-19T04:18:35;14.68;;;4.93;;
40807;SDS011;26523;52.504;13.498;2023-03-19T04:21:01;14.20;;;5.70;;
40807;SDS011;26523;52.504;13.498;2023-03-19T04:23:28;14.57;;;5.63;;
40807;SDS011;26523;52.504;13.498;2023-03-19T04:25:57;14.25;;;6.10;;
40807;SDS011;26523;52.504;13.498;2023-03-19T04:28:24;12.85;;;5.57;;
40807;SDS011;26523;52.504;13.498;2023-03-19T04:30:49;18.80;;;6.60;;
40807;SDS011;26523;52.504;13.498;2023-03-19T04:33:15;14.77;;;6.05;;
40807;SDS011;26523;52.504;13.498;2023-03-19T04:35:41;13.52;;;5.75;;
40807;SDS011;26523;52.504;13.498;2023-03-19T04:38:07;15.95;;;6.38;;
40807;SDS011;26523;52.504;13.498;2023-03-19T04:40:33;16.55;;;6.53;;
40807;SDS011;26523;52.504;13.498;2023-03-19T04:42:59;15.20;;;6.00;;
40807;SDS011;26523;52.504;13.498;2023-03-19T04:45:24;20.08;;;6.60;;
40807;SDS011;26523;52.504;13.498;2023-03-19T04:47:50;27.10;;;7.20;;
40807;SDS011;26523;52.504;13.498;2023-03-19T04:50:16;14.50;;;6.60;;
40807;SDS011;26523;52.504;13.498;2023-03-19T04:52:42;14.63;;;6.63;;
40807;SDS011;26523;52.504;13.498;2023-03-19T04:55:07;16.42;;;5.72;;
40807;SDS011;26523;52.504;13.498;2023-03-19T04:57:33;15.48;;;6.80;;
40807;SDS011;26523;52.504;13.498;2023-03-19T04:59:59;13.00;;;5.97;;
40807;SDS011;26523;52.504;13.498;2023-03-19T05:02:25;12.68;;;5.55;;
40807;SDS011;26523;52.504;13.498;2023-03-19T05:04:51;13.23;;;5.93;;
40807;SDS011;26523;52.504;13.498;2023-03-19T05:07:17;15.85;;;6.65;;
40807;SDS011;26523;52.504;13.498;2023-03-19T05:09:43;19.60;;;7.60;;
40807;SDS011;26523;52.504;13.498;2023-03-19T05:12:10;15.55;;;6.20;;
40807;SDS011;26523;52.504;13.498;2023-03-19T05:14:36;11.60;;;6.30;;
40807;SDS011;26523;52.504;13.498;2023-03-19T05:17:02;15.25;;;6.25;;
40807;SDS011;26523;52.504;13.498;2023-03-19T05:19:28;13.15;;;6.82;;
40807;SDS011;26523;52.504;13.498;2023-03-19T05:21:53;12.77;;;6.45;;
40807;SDS011;26523;52.504;13.498;2023-03-19T05:24:21;15.48;;;6.72;;
40807;SDS011;26523;52.504;13.498;2023-03-19T05:26:47;15.23;;;6.75;;
40807;SDS011;26523;52.504;13.498;2023-03-19T05:29:12;15.40;;;7.00;;
40807;SDS011;26523;52.504;13.498;2023-03-19T05:31:38;15.40;;;6.15;;
40807;SDS011;26523;52.504;13.498;2023-03-19T05:34:04;16.88;;;7.05;;
40807;SDS011;26523;52.504;13.498;2023-03-19T05:36:30;20.35;;;7.13;;
40807;SDS011;26523;52.504;13.498;2023-03-19T05:38:55;15.57;;;6.82;;
40807;SDS011;26523;52.504;13.498;2023-03-19T05:41:21;12.35;;;5.90;;
40807;SDS011;26523;52.504;13.498;2023-03-19T05:43:46;18.83;;;7.00;;
40807;SDS011;26523;52.504;13.498;2023-03-19T05:46:12;13.85;;;6.38;;
40807;SDS011;26523;52.504;13.498;2023-03-19T05:48:38;16.00;;;6.70;;
40807;SDS011;26523;52.504;13.498;2023-03-19T05:51:03;21.88;;;6.53;;
40807;SDS011;26523;52.504;13.498;2023-03-19T05:53:29;14.80;;;7.38;;
40807;SDS011;26523;52.504;13.498;2023-03-19T05:55:55;17.98;;;7.30;;
40807;SDS011;26523;52.504;13.498;2023-03-19T05:58:21;18.08;;;7.13;;
40807;SDS011;26523;52.504;13.498;2023-03-19T06:00:46;17.55;;;7.70;;
40807;SDS011;26523;52.504;13.498;2023-03-19T06:03:15;15.40;;;6.93;;
40807;SDS011;26523;52.504;13.498;2023-03-19T06:05:41;16.17;;;6.32;;
40807;SDS011;26523;52.504;13.498;2023-03-19T06:08:07;18.00;;;7.38;;
40807;SDS011;26523;52.504;13.498;2023-03-19T06:10:33;14.55;;;6.90;;
40807;SDS011;26523;52.504;13.498;2023-03-19T06:13:00;14.52;;;6.45;;
40807;SDS011;26523;52.504;13.498;2023-03-19T06:15:25;17.08;;;7.43;;
40807;SDS011;26523;52.504;13.498;2023-03-19T06:17:51;14.90;;;6.65;;
40807;SDS011;26523;52.504;13.498;2023-03-19T06:20:17;11.80;;;5.13;;
40807;SDS011;26523;52.504;13.498;2023-03-19T06:22:43;11.38;;;5.75;;
40807;SDS011;26523;52.504;13.498;2023-03-19T06:25:09;16.33;;;7.32;;
40807;SDS011;26523;52.504;13.498;2023-03-19T06:27:35;17.35;;;6.72;;
40807;SDS011;26523;52.504;13.498;2023-03-19T06:30:01;19.77;;;7.28;;
40807;SDS011;26523;52.504;13.498;2023-03-19T06:32:26;19.25;;;7.20;;
40807;SDS011;26523;52.504;13.498;2023-03-19T06:34:52;12.35;;;5.93;;
40807;SDS011;26523;52.504;13.498;2023-03-19T06:37:19;13.60;;;6.68;;
40807;SDS011;26523;52.504;13.498;2023-03-19T06:39:44;19.88;;;7.10;;
40807;SDS011;26523;52.504;13.498;2023-03-19T06:42:10;14.90;;;6.68;;
40807;SDS011;26523;52.504;13.498;2023-03-19T06:44:36;13.45;;;6.78;;
40807;SDS011;26523;52.504;13.498;2023-03-19T06:47:01;13.35;;;6.20;;
40807;SDS011;26523;52.504;13.498;2023-03-19T06:49:27;13.82;;;6.30;;
40807;SDS011;26523;52.504;13.498;2023-03-19T06:51:53;17.33;;;6.78;;
40807;SDS011;26523;52.504;13.498;2023-03-19T06:54:18;20.08;;;6.72;;
40807;SDS011;26523;52.504;13.498;2023-03-19T06:56:44;17.65;;;6.90;;
40807;SDS011;26523;52.504;13.498;2023-03-19T06:59:11;18.65;;;6.90;;
40807;SDS011;26523;52.504;13.498;2023-03-19T07:01:38;13.32;;;6.55;;
40807;SDS011;26523;52.504;13.498;2023-03-19T07:04:05;20.60;;;5.97;;
40807;SDS011;26523;52.504;13.498;2023-03-19T07:06:31;15.32;;;6.15;;
40807;SDS011;26523;52.504;13.498;2023-03-19T07:08:58;16.88;;;6.38;;
40807;SDS011;26523;52.504;13.498;2023-03-19T07:11:24;14.73;;;7.20;;
40807;SDS011;26523;52.504;13.498;2023-03-19T07:13:49;16.60;;;6.85;;
40807;SDS011;26523;52.504;13.498;2023-03-19T07:16:15;14.52;;;6.57;;
40807;SDS011;26523;52.504;13.498;2023-03-19T07:18:41;15.25;;;6.45;;
40807;SDS011;26523;52.504;13.498;2023-03-19T07:21:06;16.38;;;7.20;;
40807;SDS011;26523;52.504;13.498;2023-03-19T07:23:32;16.45;;;6.88;;
40807;SDS011;26523;52.504;13.498;2023-03-19T07:25:58;13.27;;;6.20;;
40807;SDS011;26523;52.504;13.498;2023-03-19T07:28:23;12.55;;;6.30;;
40807;SDS011;26523;52.504;13.498;2023-03-19T07:30:52;14.73;;;7.03;;
40807;SDS011;26523;52.504;13.498;2023-03-19T07:33:19;12.88;;;6.45;;
40807;SDS011;26523;52.504;13.498;2023-03-19T07:35:45;15.60;;;6.88;;
40807;SDS011;26523;52.504;13.498;2023-03-19T07:38:11;15.27;;;6.90;;
40807;SDS011;26523;52.504;13.498;2023-03-19T07:40:38;16.90;;;7.18;;
40807;SDS011;26523;52.504;13.498;2023-03-19T07:43:04;18.38;;;7.57;;
40807;SDS011;26523;52.504;13.498;2023-03-19T07:45:30;15.75;;;6.82;;
40807;SDS011;26523;52.504;13.498;2023-03-19T07:47:55;15.77;;;6.68;;
40807;SDS011;26523;52.504;13.498;2023-03-19T07:50:21;15.55;;;6.35;;
40807;SDS011;26523;52.504;13.498;2023-03-19T07:52:47;16.00;;;7.55;;
40807;SDS011;26523;52.504;13.498;2023-03-19T07:55:15;12.45;;;6.63;;
40807;SDS011;26523;52.504;13.498;2023-03-19T07:57:41;12.70;;;6.70;;
40807;SDS011;26523;52.504;13.498;2023-03-19T08:00:07;13.10;;;6.63;;
40807;SDS011;26523;52.504;13.498;2023-03-19T08:02:34;16.10;;;7.18;;
40807;SDS011;26523;52.504;13.498;2023-03-19T08:05:00;13.90;;;6.72;;
40807;SDS011;26523;52.504;13.498;2023-03-19T08:07:28;12.52;;;6.60;;
40807;SDS011;26523;52.504;13.498;2023-03-19T08:09:54;14.48;;;5.65;;
40807;SDS011;26523;52.504;13.498;2023-03-19T08:12:22;14.25;;;6.30;;
40807;SDS011;26523;52.504;13.498;2023-03-19T08:14:48;13.20;;;5.72;;
40807;SDS011;26523;52.504;13.498;2023-03-19T08:17:13;12.63;;;5.63;;
40807;SDS011;26523;52.504;13.498;2023-03-19T08:19:39;12.77;;;6.15;;
40807;SDS011;26523;52.504;13.498;2023-03-19T08:22:05;14.85;;;5.97;;
40807;SDS011;26523;52.504;13.498;2023-03-19T08:24:31;13.60;;;5.90;;
40807;SDS011;26523;52.504;13.498;2023-03-19T08:26:57;11.93;;;5.40;;
40807;SDS011;26523;52.504;13.498;2023-03-19T08:29:22;10.38;;;5.20;;
40807;SDS011;26523;52.504;13.498;2023-03-19T08:31:51;11.38;;;5.13;;
40807;SDS011;26523;52.504;13.498;2023-03-19T08:34:17;12.18;;;5.07;;
40807;SDS011;26523;52.504;13.498;2023-03-19T08:36:42;10.05;;;4.90;;
40807;SDS011;26523;52.504;13.498;2023-03-19T08:39:08;13.95;;;6.00;;
40807;SDS011;26523;52.504;13.498;2023-03-19T08:41:34;11.30;;;5.03;;
40807;SDS011;26523;52.504;13.498;2023-03-19T08:44:00;13.40;;;5.70;;
40807;SDS011;26523;52.504;13.498;2023-03-19T08:46:25;12.43;;;5.03;;
40807;SDS011;26523;52.504;13.498;2023-03-19T08:48:51;12.52;;;5.70;;
40807;SDS011;26523;52.504;13.498;2023-03-19T08:51:17;14.10;;;5.68;;
40807;SDS011;26523;52.504;13.498;2023-03-19T08:53:43;11.60;;;5.75;;
40807;SDS011;26523;52.504;13.498;2023-03-19T08:56:09;13.05;;;5.47;;
40807;SDS011;26523;52.504;13.498;2023-03-19T08:58:35;12.82;;;5.65;;
40807;SDS011;26523;52.504;13.498;2023-03-19T09:01:01;11.93;;;6.28;;
40807;SDS011;26523;52.504;13.498;2023-03-19T09:03:29;12.80;;;6.32;;
40807;SDS011;26523;52.504;13.498;2023-03-19T09:05:59;13.07;;;6.65;;
40807;SDS011;26523;52.504;13.498;2023-03-19T09:08:26;13.98;;;6.60;;
40807;SDS011;26523;52.504;13.498;2023-03-19T09:10:53;15.30;;;6.32;;
40807;SDS011;26523;52.504;13.498;2023-03-19T09:13:19;15.18;;;7.15;;
40807;SDS011;26523;52.504;13.498;2023-03-19T09:15:45;13.73;;;6.65;;
40807;SDS011;26523;52.504;13.498;2023-03-19T09:18:11;16.75;;;6.85;;
40807;SDS011;26523;52.504;13.498;2023-03-19T09:20:37;16.23;;;7.13;;
40807;SDS011;26523;52.504;13.498;2023-03-19T09:23:02;15.43;;;6.88;;
40807;SDS011;26523;52.504;13.498;2023-03-19T09:25:28;17.77;;;7.25;;
40807;SDS011;26523;52.504;13.498;2023-03-19T09:27:54;16.58;;;7.22;;
40807;SDS011;26523;52.504;13.498;2023-03-19T09:30:20;17.20;;;7.35;;
40807;SDS011;26523;52.504;13.498;2023-03-19T09:32:45;16.42;;;8.27;;
40807;SDS011;26523;52.504;13.498;2023-03-19T09:35:11;25.55;;;8.88;;
40807;SDS011;26523;52.504;13.498;2023-03-19T09:37:37;16.98;;;7.78;;
40807;SDS011;26523;52.504;13.498;2023-03-19T09:40:03;18.67;;;8.40;;
40807;SDS011;26523;52.504;13.498;2023-03-19T09:45:41;16.63;;;8.13;;
40807;SDS011;26523;52.504;13.498;2023-03-19T09:48:15;20.83;;;9.13;;
40807;SDS011;26523;52.504;13.498;2023-03-19T09:51:04;19.55;;;8.65;;
40807;SDS011;26523;52.504;13.498;2023-03-19T09:53:49;18.00;;;8.57;;
40807;SDS011;26523;52.504;13.498;2023-03-19T09:56:20;22.67;;;9.55;;
40807;SDS011;26523;52.504;13.498;2023-03-19T09:58:46;17.35;;;8.23;;
40807;SDS011;26523;52.504;13.498;2023-03-19T10:01:56;24.55;;;9.38;;
40807;SDS011;26523;52.504;13.498;2023-03-19T10:04:08;18.65;;;9.00;;
40807;SDS011;26523;52.504;13.498;2023-03-19T10:06:38;16.33;;;8.73;;
40807;SDS011;26523;52.504;13.498;2023-03-19T10:26:17;19.52;;;10.00;;
40807;SDS011;26523;52.504;13.498;2023-03-19T10:28:45;16.50;;;8.32;;
40807;SDS011;26523;52.504;13.498;2023-03-19T10:36:56;18.02;;;7.80;;
40807;SDS011;26523;52.504;13.498;2023-03-19T10:39:39;14.60;;;7.35;;
40807;SDS011;26523;52.504;13.498;2023-03-19T10:42:11;22.85;;;8.52;;
40807;SDS011;26523;52.504;13.498;2023-03-19T10:44:55;18.67;;;7.85;;
40807;SDS011;26523;52.504;13.498;2023-03-19T10:47:41;14.95;;;7.63;;
40807;SDS011;26523;52.504;13.498;2023-03-19T10:50:14;16.40;;;7.10;;
40807;SDS011;26523;52.504;13.498;2023-03-19T10:52:48;14.60;;;6.35;;
40807;SDS011;26523;52.504;13.498;2023-03-19T10:55:16;17.27;;;7.35;;
40807;SDS011;26523;52.504;13.498;2023-03-19T11:00:40;14.35;;;7.15;;
40807;SDS011;26523;52.504;13.498;2023-03-19T11:11:31;11.95;;;5.85;;
40807;SDS011;26523;52.504;13.498;2023-03-19T11:14:06;10.80;;;5.35;;
40807;SDS011;26523;52.504;13.498;2023-03-19T11:16:50;10.98;;;6.43;;
40807;SDS011;26523;52.504;13.498;2023-03-19T11:19:20;12.45;;;5.93;;
40807;SDS011;26523;52.504;13.498;2023-03-19T11:24:58;13.20;;;5.65;;
40807;SDS011;26523;52.504;13.498;2023-03-19T11:27:30;12.82;;;5.78;;
40807;SDS011;26523;52.504;13.498;2023-03-19T11:29:59;16.02;;;6.35;;
40807;SDS011;26523;52.504;13.498;2023-03-19T11:37:50;11.88;;;5.10;;
40807;SDS011;26523;52.504;13.498;2023-03-19T11:43:27;12.60;;;6.10;;
40807;SDS011;26523;52.504;13.498;2023-03-19T11:49:15;11.95;;;6.10;;
40807;SDS011;26523;52.504;13.498;2023-03-19T11:55:03;12.88;;;5.63;;
40807;SDS011;26523;52.504;13.498;2023-03-19T12:11:52;11.00;;;4.57;;
40807;SDS011;26523;52.504;13.498;2023-03-19T12:20:01;10.38;;;5.07;;
40807;SDS011;26523;52.504;13.498;2023-03-19T12:22:51;12.15;;;4.82;;
40807;SDS011;26523;52.504;13.498;2023-03-19T12:28:33;10.27;;;5.00;;
40807;SDS011;26523;52.504;13.498;2023-03-19T12:33:56;15.00;;;5.40;;
40807;SDS011;26523;52.504;13.498;2023-03-19T12:36:49;13.02;;;5.43;;
40807;SDS011;26523;52.504;13.498;2023-03-19T12:39:25;12.32;;;5.43;;
40807;SDS011;26523;52.504;13.498;2023-03-19T12:41:58;10.55;;;4.93;;
40807;SDS011;26523;52.504;13.498;2023-03-19T12:45:11;10.27;;;4.78;;
40807;SDS011;26523;52.504;13.498;2023-03-19T12:47:26;9.40;;;4.18;;
40807;SDS011;26523;52.504;13.498;2023-03-19T12:50:00;9.45;;;4.97;;
40807;SDS011;26523;52.504;13.498;2023-03-19T12:52:32;10.23;;;4.78;;
40807;SDS011;26523;52.504;13.498;2023-03-19T13:00:27;12.25;;;4.85;;
40807;SDS011;26523;52.504;13.498;2023-03-19T13:02:57;10.13;;;4.78;;
40807;SDS011;26523;52.504;13.498;2023-03-19T13:08:33;11.57;;;5.53;;
40807;SDS011;26523;52.504;13.498;2023-03-19T13:11:04;11.00;;;4.72;;
40807;SDS011;26523;52.504;13.498;2023-03-19T13:13:50;7.80;;;4.38;;
40807;SDS011;26523;52.504;13.498;2023-03-19T13:16:38;9.65;;;4.13;;
40807;SDS011;26523;52.504;13.498;2023-03-19T13:21:39;9.80;;;4.85;;
40807;SDS011;26523;52.504;13.498;2023-03-19T13:26:52;10.68;;;4.18;;
40807;SDS011;26523;52.504;13.498;2023-03-19T13:29:21;9.15;;;4.40;;
40807;SDS011;26523;52.504;13.498;2023-03-19T13:31:51;7.97;;;4.53;;
40807;SDS011;26523;52.504;13.498;2023-03-19T13:34:26;12.77;;;5.35;;
40807;SDS011;26523;52.504;13.498;2023-03-19T13:39:28;9.35;;;4.95;;
40807;SDS011;26523;52.504;13.498;2023-03-19T13:44:52;10.90;;;4.47;;
40807;SDS011;26523;52.504;13.498;2023-03-19T13:58:14;9.70;;;4.30;;
40807;SDS011;26523;52.504;13.498;2023-03-19T14:06:45;9.23;;;4.68;;
40807;SDS011;26523;52.504;13.498;2023-03-19T14:17:35;6.90;;;4.05;;
40807;SDS011;26523;52.504;13.498;2023-03-19T14:28:32;7.15;;;3.45;;
40807;SDS011;26523;52.504;13.498;2023-03-19T14:40:16;6.53;;;2.80;;
40807;SDS011;26523;52.504;13.498;2023-03-19T14:48:44;7.50;;;3.65;;
40807;SDS011;26523;52.504;13.498;2023-03-19T14:54:24;5.57;;;2.95;;
40807;SDS011;26523;52.504;13.498;2023-03-19T14:56:55;8.25;;;3.80;;
40807;SDS011;26523;52.504;13.498;2023-03-19T14:59:21;7.80;;;3.38;;
40807;SDS011;26523;52.504;13.498;2023-03-19T15:01:48;9.73;;;3.95;;
40807;SDS011;26523;52.504;13.498;2023-03-19T15:04:16;9.85;;;3.55;;
40807;SDS011;26523;52.504;13.498;2023-03-19T15:06:49;12.88;;;3.85;;
40807;SDS011;26523;52.504;13.498;2023-03-19T15:17:36;8.43;;;3.28;;
40807;SDS011;26523;52.504;13.498;2023-03-19T15:20:07;8.43;;;3.65;;
40807;SDS011;26523;52.504;13.498;2023-03-19T15:22:53;9.57;;;4.15;;
40807;SDS011;26523;52.504;13.498;2023-03-19T15:25:20;9.63;;;3.65;;
40807;SDS011;26523;52.504;13.498;2023-03-19T15:27:46;7.82;;;3.58;;
40807;SDS011;26523;52.504;13.498;2023-03-19T15:30:29;8.32;;;4.10;;
40807;SDS011;26523;52.504;13.498;2023-03-19T15:32:55;9.20;;;4.53;;
40807;SDS011;26523;52.504;13.498;2023-03-19T15:35:22;9.15;;;3.83;;
40807;SDS011;26523;52.504;13.498;2023-03-19T15:37:54;8.35;;;3.97;;
40807;SDS011;26523;52.504;13.498;2023-03-19T15:40:24;6.97;;;3.72;;
40807;SDS011;26523;52.504;13.498;2023-03-19T15:42:52;5.97;;;3.42;;
40807;SDS011;26523;52.504;13.498;2023-03-19T15:45:20;6.68;;;3.42;;
40807;SDS011;26523;52.504;13.498;2023-03-19T15:47:56;7.82;;;3.67;;
40807;SDS011;26523;52.504;13.498;2023-03-19T15:50:28;8.43;;;3.80;;
40807;SDS011;26523;52.504;13.498;2023-03-19T15:52:58;9.95;;;4.35;;
40807;SDS011;26523;52.504;13.498;2023-03-19T15:55:26;7.70;;;3.88;;
40807;SDS011;26523;52.504;13.498;2023-03-19T15:57:53;7.47;;;3.85;;
40807;SDS011;26523;52.504;13.498;2023-03-19T16:00:21;8.85;;;4.07;;
40807;SDS011;26523;52.504;13.498;2023-03-19T16:02:49;9.90;;;3.70;;
40807;SDS011;26523;52.504;13.498;2023-03-19T16:05:26;7.60;;;3.67;;
40807;SDS011;26523;52.504;13.498;2023-03-19T16:07:54;11.13;;;3.75;;
40807;SDS011;26523;52.504;13.498;2023-03-19T16:13:00;11.55;;;6.22;;
40807;SDS011;26523;52.504;13.498;2023-03-19T16:15:42;11.23;;;4.90;;
40807;SDS011;26523;52.504;13.498;2023-03-19T16:18:39;8.30;;;3.65;;
40807;SDS011;26523;52.504;13.498;2023-03-19T16:24:20;9.73;;;4.63;;
40807;SDS011;26523;52.504;13.498;2023-03-19T16:29:14;7.35;;;3.45;;
40807;SDS011;26523;52.504;13.498;2023-03-19T16:31:49;8.07;;;3.67;;
40807;SDS011;26523;52.504;13.498;2023-03-19T16:37:33;8.23;;;4.07;;
40807;SDS011;26523;52.504;13.498;2023-03-19T16:47:43;12.02;;;4.65;;
40807;SDS011;26523;52.504;13.498;2023-03-19T16:50:11;11.85;;;4.03;;
40807;SDS011;26523;52.504;13.498;2023-03-19T16:52:37;11.02;;;4.25;;
40807;SDS011;26523;52.504;13.498;2023-03-19T16:55:04;11.63;;;4.60;;
40807;SDS011;26523;52.504;13.498;2023-03-19T16:57:42;16.98;;;5.07;;
40807;SDS011;26523;52.504;13.498;2023-03-19T17:00:10;11.60;;;4.85;;
40807;SDS011;26523;52.504;13.498;2023-03-19T17:02:37;11.82;;;5.00;;
40807;SDS011;26523;52.504;13.498;2023-03-19T17:05:08;15.25;;;5.82;;
40807;SDS011;26523;52.504;13.498;2023-03-19T17:07:38;11.57;;;5.32;;
40807;SDS011;26523;52.504;13.498;2023-03-19T17:10:05;9.15;;;5.07;;
40807;SDS011;26523;52.504;13.498;2023-03-19T17:12:33;14.50;;;5.47;;
40807;SDS011;26523;52.504;13.498;2023-03-19T17:14:59;14.68;;;5.80;;
40807;SDS011;26523;52.504;13.498;2023-03-19T17:17:25;13.68;;;5.80;;
40807;SDS011;26523;52.504;13.498;2023-03-19T17:19:51;16.40;;;6.00;;
40807;SDS011;26523;52.504;13.498;2023-03-19T17:22:16;17.55;;;5.93;;
40807;SDS011;26523;52.504;13.498;2023-03-19T17:24:42;11.52;;;5.38;;
40807;SDS011;26523;52.504;13.498;2023-03-19T17:27:08;15.38;;;5.55;;
40807;SDS011;26523;52.504;13.498;2023-03-19T17:29:35;13.98;;;6.07;;
40807;SDS011;26523;52.504;13.498;2023-03-19T17:32:00;14.80;;;5.90;;
40807;SDS011;26523;52.504;13.498;2023-03-19T17:34:28;12.52;;;5.30;;